Time;durP1;ratioP1;P1;durP2;ratioP2;P2;SDS_P1;SDS_P2;PMS_P1;PMS_P2;Temp;Humidity;BMP_temperature;BMP_pressure;BME280_temperature;BME280_humidity;BME280_pressure;Samples;Min_cycle;Max_cycle;Signal;HPM_P1;HPM_P2
2022/05/14 00:00:43;;;;;;;;;;;;;;;21.82;51.64;99946.56;4399574;32;19996;-86
2022/05/14 00:03:11;;;;;;;;;;;;;;;21.88;51.69;99944.62;4397141;32;19983;-85
2022/05/14 00:05:37;;;;;;;;;;;;;;;21.99;51.37;99947.84;4413447;32;19985;-85
2022/05/14 00:08:04;;;;;;;;;;;;;;;21.87;51.81;99948.19;4414793;32;19971;-84
2022/05/14 00:10:33;;;;;;;;;;;;;;;21.58;52.39;99947.22;4415101;32;20023;-84
2022/05/14 00:13:05;;;;;;;;;;;;;;;21.52;52.47;99942.13;4414869;32;19982;-85
2022/05/14 00:15:39;;;;;;;;;;;;;;;21.65;52.16;99940.87;4413353;32;19987;-84
2022/05/14 00:18:08;;;;;;;;;;;;;;;21.74;51.70;99953.78;4412221;32;19993;-84
2022/05/14 00:20:36;;;;;;;;;;;;;;;21.60;52.23;99950.66;4414558;32;19996;-85
2022/05/14 00:23:03;;;;;;;;;;;;;;;21.62;52.20;99956.75;4414188;32;20403;-85
2022/05/14 00:25:30;;;;;;;;;;;;;;;21.50;52.67;99949.19;4413857;32;19978;-85
2022/05/14 00:27:57;;;;;;;;;;;;;;;21.59;52.44;99951.59;4414604;32;19966;-85
2022/05/14 00:30:25;;;;;;;;;;;;;;;21.67;52.05;99949.63;4412993;32;20380;-86
2022/05/14 00:32:53;;;;;;;;;;;;;;;21.66;52.14;99947.87;4413925;32;19985;-85
2022/05/14 00:35:20;;;;;;;;;;;;;;;21.92;51.45;99954.16;4414553;32;20033;-85
2022/05/14 00:37:47;;;;;;;;;;;;;;;21.80;51.59;99948.34;4414211;32;20797;-85
2022/05/14 00:40:15;;;;;;;;;;;;;;;21.57;52.28;99945.50;4415916;32;19992;-85
2022/05/14 00:42:42;;;;;;;;;;;;;;;21.59;52.37;99948.94;4415714;32;19996;-85
2022/05/14 00:45:10;;;;;;;;;;;;;;;21.70;52.10;99946.91;4416906;32;20356;-84
2022/05/14 00:47:38;;;;;;;;;;;;;;;21.55;52.67;99953.44;4416957;32;20049;-84
2022/05/14 00:50:09;;;;;;;;;;;;;;;21.72;52.29;99955.59;4415401;32;20000;-85
2022/05/14 00:52:36;;;;;;;;;;;;;;;21.69;52.19;99962.72;4415444;32;20376;-86
2022/05/14 00:55:04;;;;;;;;;;;;;;;21.70;52.12;99957.44;4416671;32;20061;-84
2022/05/14 00:57:32;;;;;;;;;;;;;;;21.63;52.16;99960.25;4416716;32;20374;-85
2022/05/14 01:00:00;;;;;;;;;;;;;;;21.82;51.87;99961.47;4416406;32;19994;-84
2022/05/14 01:02:28;;;;;;;;;;;;;;;21.78;51.91;99955.44;4414993;32;20039;-83
2022/05/14 01:04:55;;;;;;;;;;;;;;;21.81;51.67;99963.25;4416107;32;19994;-84
2022/05/14 01:07:23;;;;;;;;;;;;;;;21.83;51.62;99964.09;4415671;32;20004;-84
2022/05/14 01:09:51;;;;;;;;;;;;;;;21.72;51.82;99960.88;4416802;32;19981;-84
2022/05/14 01:12:19;;;;;;;;;;;;;;;21.75;51.85;99971.31;4414892;32;20040;-84
2022/05/14 01:14:49;;;;;;;;;;;;;;;21.88;51.38;99963.09;4415488;32;20414;-86
2022/05/14 01:17:18;;;;;;;;;;;;;;;21.80;51.66;99969.44;4415136;32;20001;-84
2022/05/14 01:19:44;;;;;;;;;;;;;;;21.69;52.05;99955.69;4421159;32;20263;-86
2022/05/14 01:22:12;;;;;;;;;;;;;;;21.78;51.76;99960.69;4420121;32;20248;-84
2022/05/14 01:27:31;;;;;;;;;;;;;;;21.28;53.25;99962.91;4402961;32;19997;-85
2022/05/14 01:29:59;;;;;;;;;;;;;;;21.31;53.39;99960.19;4415604;32;19982;-85
2022/05/14 01:32:26;;;;;;;;;;;;;;;21.39;53.12;99957.38;4416295;32;20299;-86
2022/05/14 01:34:54;;;;;;;;;;;;;;;21.60;52.35;99953.28;4416094;32;20694;-87
2022/05/14 01:37:23;;;;;;;;;;;;;;;21.43;53.05;99958.16;4416504;32;20787;-85
2022/05/14 01:39:51;;;;;;;;;;;;;;;21.31;53.40;99952.31;4415779;32;19981;-85
2022/05/14 01:42:18;;;;;;;;;;;;;;;21.42;52.81;99961.72;4416341;32;19986;-85
2022/05/14 01:44:46;;;;;;;;;;;;;;;21.26;53.53;99959.44;4414947;32;19988;-85
2022/05/14 01:47:13;;;;;;;;;;;;;;;21.30;53.32;99962.84;4412252;32;19981;-84
2022/05/14 01:49:40;;;;;;;;;;;;;;;21.46;52.92;99958.09;4414960;32;19989;-84
2022/05/14 01:52:08;;;;;;;;;;;;;;;21.47;52.91;99960.66;4415765;32;20020;-84
2022/05/14 01:54:35;;;;;;;;;;;;;;;21.28;53.65;99959.38;4414787;32;20108;-83
2022/05/14 01:57:02;;;;;;;;;;;;;;;21.32;53.40;99953.16;4415809;32;20327;-83
2022/05/14 01:59:29;;;;;;;;;;;;;;;21.33;53.44;99953.09;4416548;32;19974;-86
2022/05/14 02:01:56;;;;;;;;;;;;;;;21.34;53.38;99954.81;4415696;32;19985;-84
2022/05/14 02:04:23;;;;;;;;;;;;;;;21.43;53.23;99958.16;4415323;32;21085;-84
2022/05/14 02:06:51;;;;;;;;;;;;;;;21.15;53.97;99964.09;4415915;32;19994;-84
2022/05/14 02:09:19;;;;;;;;;;;;;;;21.20;53.82;99962.22;4416152;32;20008;-84
2022/05/14 02:11:46;;;;;;;;;;;;;;;21.11;54.12;99957.19;4405622;32;19990;-85
2022/05/14 02:14:13;;;;;;;;;;;;;;;21.11;54.16;99957.19;4401265;32;20318;-84
2022/05/14 02:16:40;;;;;;;;;;;;;;;21.16;53.87;99957.97;4400000;32;20046;-84
2022/05/14 02:19:07;;;;;;;;;;;;;;;21.14;53.96;99959.75;4400266;32;19985;-85
2022/05/14 02:21:35;;;;;;;;;;;;;;;21.06;54.19;99953.84;4400528;32;19978;-84
2022/05/14 02:24:01;;;;;;;;;;;;;;;21.11;54.06;99962.47;4399883;32;19978;-85
2022/05/14 02:26:30;;;;;;;;;;;;;;;21.15;53.94;99958.84;4400104;32;20009;-87
2022/05/14 02:28:58;;;;;;;;;;;;;;;21.08;54.13;99957.28;4401026;32;19986;-86
2022/05/14 02:31:25;;;;;;;;;;;;;;;21.08;54.05;99962.53;4400307;32;19990;-86
2022/05/14 02:33:52;;;;;;;;;;;;;;;21.02;54.26;99960.06;4399625;32;20285;-84
2022/05/14 02:36:19;;;;;;;;;;;;;;;21.02;54.33;99962.69;4399201;32;19991;-85
2022/05/14 02:38:46;;;;;;;;;;;;;;;21.06;53.98;99964.38;4400052;32;19982;-86
2022/05/14 02:41:13;;;;;;;;;;;;;;;20.79;54.86;99966.75;4088997;32;10004384;-86
2022/05/14 02:43:41;;;;;;;;;;;;;;;20.82;54.91;99969.31;4384531;32;20029;-85
2022/05/14 02:46:08;;;;;;;;;;;;;;;20.74;55.17;99968.63;4395483;32;19986;-86
2022/05/14 02:48:35;;;;;;;;;;;;;;;20.82;54.87;99976.34;4400450;32;20002;-85
2022/05/14 02:51:02;;;;;;;;;;;;;;;20.76;55.07;99972.06;4399287;32;20452;-85
2022/05/14 02:53:29;;;;;;;;;;;;;;;20.65;55.49;99979.38;4400122;32;20031;-85
2022/05/14 02:55:56;;;;;;;;;;;;;;;20.75;55.18;99986.16;4400119;32;20061;-86
2022/05/14 03:01:09;;;;;;;;;;;;;;;20.77;54.93;99986.97;4399885;32;20040;-86
2022/05/14 03:03:37;;;;;;;;;;;;;;;20.68;55.35;99989.81;4398836;32;20001;-85
2022/05/14 03:06:04;;;;;;;;;;;;;;;20.62;55.61;99979.44;4400109;32;20028;-85
2022/05/14 03:08:31;;;;;;;;;;;;;;;20.63;55.56;99983.78;4393658;32;20028;-84
2022/05/14 03:10:58;;;;;;;;;;;;;;;20.61;55.47;99985.56;4399123;32;20693;-85
2022/05/14 03:13:26;;;;;;;;;;;;;;;20.72;55.07;99991.47;4399919;32;19982;-85
2022/05/14 03:15:53;;;;;;;;;;;;;;;20.58;55.53;99996.16;4399816;32;19974;-85
2022/05/14 03:18:20;;;;;;;;;;;;;;;20.69;55.13;99999.44;4397131;32;20028;-85
2022/05/14 03:20:47;;;;;;;;;;;;;;;20.63;55.30;100003.06;4400602;32;19982;-84
2022/05/14 03:23:15;;;;;;;;;;;;;;;20.62;55.36;99998.72;4400217;32;19990;-83
2022/05/14 03:25:42;;;;;;;;;;;;;;;20.57;55.41;100008.47;4400273;32;19974;-84
2022/05/14 03:28:10;;;;;;;;;;;;;;;20.63;55.35;100007.47;4399855;32;20050;-84
2022/05/14 03:30:37;;;;;;;;;;;;;;;20.44;55.95;100013.09;4399212;32;20333;-84
2022/05/14 03:33:04;;;;;;;;;;;;;;;20.47;55.93;100017.41;4398547;32;20393;-84
2022/05/14 03:35:31;;;;;;;;;;;;;;;20.37;56.18;100026.41;4399404;32;20028;-84
2022/05/14 03:37:58;;;;;;;;;;;;;;;20.38;56.29;100029.00;4399996;32;20036;-85
2022/05/14 03:40:25;;;;;;;;;;;;;;;20.34;56.49;100022.06;4399420;32;20012;-85
2022/05/14 03:42:52;;;;;;;;;;;;;;;20.41;56.33;100023.66;4399411;32;19996;-85
2022/05/14 03:45:19;;;;;;;;;;;;;;;20.51;56.02;100023.47;4399380;32;19986;-84
2022/05/14 03:47:47;;;;;;;;;;;;;;;20.43;56.32;100024.50;4399918;32;19979;-85
2022/05/14 03:50:14;;;;;;;;;;;;;;;20.42;56.42;100024.53;4398680;32;19996;-84
2022/05/14 03:52:41;;;;;;;;;;;;;;;20.44;56.12;100028.88;4400124;32;20028;-84
2022/05/14 03:55:09;;;;;;;;;;;;;;;20.46;56.06;100030.63;4398413;32;20049;-84
2022/05/14 03:57:36;;;;;;;;;;;;;;;20.47;56.08;100027.94;4399761;32;19997;-84
2022/05/14 04:00:07;;;;;;;;;;;;;;;20.35;56.61;100039.56;4399433;32;20002;-84
2022/05/14 04:02:38;;;;;;;;;;;;;;;20.54;56.02;100045.34;4398880;32;19986;-84
2022/05/14 04:05:06;;;;;;;;;;;;;;;20.55;56.09;100040.94;4399633;32;20069;-84
2022/05/14 04:07:33;;;;;;;;;;;;;;;20.37;56.65;100053.56;4400340;32;19986;-85
2022/05/14 04:10:00;;;;;;;;;;;;;;;20.51;56.18;100055.94;4399836;32;20012;-84
2022/05/14 04:12:31;;;;;;;;;;;;;;;20.34;56.72;100058.03;4399098;32;20307;-85
2022/05/14 04:14:58;;;;;;;;;;;;;;;20.23;57.27;100050.37;4399313;32;19985;-85
2022/05/14 04:17:25;;;;;;;;;;;;;;;20.45;56.65;100061.28;4398986;32;20312;-84
2022/05/14 04:19:53;;;;;;;;;;;;;;;20.55;56.38;100061.97;4395899;32;20163;-85
2022/05/14 04:22:20;;;;;;;;;;;;;;;20.43;56.61;100063.09;4401758;32;20444;-85
2022/05/14 04:24:47;;;;;;;;;;;;;;;20.55;56.54;100067.25;4401614;32;20033;-85
2022/05/14 04:27:15;;;;;;;;;;;;;;;20.51;56.55;100070.81;4401338;32;20316;-85
2022/05/14 04:29:41;;;;;;;;;;;;;;;20.49;56.85;100078.75;4400944;32;19974;-83
2022/05/14 04:32:08;;;;;;;;;;;;;;;20.49;56.82;100083.16;4390254;32;19996;-84
2022/05/14 04:34:40;;;;;;;;;;;;;;;20.48;56.98;100081.41;4391601;32;20010;-84
2022/05/14 04:37:07;;;;;;;;;;;;;;;20.63;56.65;100091.63;4401189;32;19974;-85
2022/05/14 04:39:34;;;;;;;;;;;;;;;20.54;57.11;100086.56;4410820;32;19986;-84
2022/05/14 04:42:02;;;;;;;;;;;;;;;20.52;57.24;100088.37;4415300;32;19977;-84
2022/05/14 04:44:30;;;;;;;;;;;;;;;20.58;56.81;100098.75;4415029;32;19984;-84
2022/05/14 04:46:57;;;;;;;;;;;;;;;20.36;57.71;100099.16;4416859;32;19971;-84
2022/05/14 04:49:24;;;;;;;;;;;;;;;20.41;57.80;100097.28;4416876;32;19970;-84
2022/05/14 04:51:51;;;;;;;;;;;;;;;20.50;57.40;100095.38;4416358;32;19985;-84
2022/05/14 04:54:18;;;;;;;;;;;;;;;20.75;56.64;100101.91;4111867;32;10001019;-84
2022/05/14 04:56:45;;;;;;;;;;;;;;;20.68;56.99;100100.31;4416059;32;19973;-85
2022/05/14 04:59:13;;;;;;;;;;;;;;;20.58;57.24;100104.00;4414860;32;19981;-84
2022/05/14 05:03:16;;;;;;;;;;;;;;;20.46;57.41;100109.50;4415749;32;19997;-84
2022/05/14 05:04:30;;;;;;;;;;;;;;;20.62;56.79;100100.44;4416097;32;20350;-84
2022/05/14 05:06:58;;;;;;;;;;;;;;;20.76;56.70;100108.88;4414829;32;19978;-85
2022/05/14 05:09:24;;;;;;;;;;;;;;;20.77;56.77;100108.00;4416281;32;19978;-84
2022/05/14 05:11:51;;;;;;;;;;;;;;;20.84;56.02;100114.87;4416406;32;20047;-83
2022/05/14 05:14:18;;;;;;;;;;;;;;;20.85;55.81;100113.97;4416012;32;20002;-83
2022/05/14 05:16:45;;;;;;;;;;;;;;;20.87;56.29;100117.44;4415422;32;19997;-84
2022/05/14 05:19:13;;;;;;;;;;;;;;;20.95;56.10;100129.56;4415849;32;19977;-84
2022/05/14 05:21:39;;;;;;;;;;;;;;;20.87;56.56;100127.09;4415961;32;19990;-83
2022/05/14 05:24:06;;;;;;;;;;;;;;;21.12;55.83;100132.66;4415823;32;19985;-84
2022/05/14 05:26:33;;;;;;;;;;;;;;;20.95;55.92;100134.81;4412746;32;20452;-84
2022/05/14 05:29:00;;;;;;;;;;;;;;;21.03;55.51;100138.16;4414862;32;20271;-84
2022/05/14 05:31:27;;;;;;;;;;;;;;;21.08;55.41;100141.53;4416192;32;20057;-84
2022/05/14 05:33:54;;;;;;;;;;;;;;;21.00;55.53;100143.50;4415949;32;19994;-85
2022/05/14 05:36:21;;;;;;;;;;;;;;;21.14;55.20;100141.41;4416503;32;20023;-83
2022/05/14 05:38:48;;;;;;;;;;;;;;;21.21;54.28;100150.03;4414115;32;20077;-84
2022/05/14 05:41:15;;;;;;;;;;;;;;;21.09;54.44;100148.53;4416094;32;20127;-85
2022/05/14 05:43:41;;;;;;;;;;;;;;;21.23;53.79;100149.09;4416878;32;19978;-84
2022/05/14 05:46:09;;;;;;;;;;;;;;;21.27;53.62;100149.88;4415896;32;19977;-85
2022/05/14 05:48:36;;;;;;;;;;;;;;;21.37;53.44;100154.94;4414668;32;20000;-84
2022/05/14 05:51:03;;;;;;;;;;;;;;;21.45;52.07;100151.28;4414877;32;19994;-84
2022/05/14 05:59:03;;;;;;;;;;;;;;;21.31;51.57;100162.97;4414554;32;20040;-83
2022/05/14 06:01:30;;;;;;;;;;;;;;;21.49;51.36;100158.19;4416103;32;20043;-82
2022/05/14 06:03:58;;;;;;;;;;;;;;;21.40;50.62;100163.66;4415474;32;19981;-83
2022/05/14 06:06:25;;;;;;;;;;;;;;;21.33;50.36;100157.66;4416101;32;19966;-84
2022/05/14 06:08:53;;;;;;;;;;;;;;;21.12;50.69;100169.50;4416529;32;19978;-82
2022/05/14 06:11:20;;;;;;;;;;;;;;;21.35;49.67;100156.75;4415477;32;20911;-84
2022/05/14 06:13:48;;;;;;;;;;;;;;;21.34;50.50;100160.22;4416743;32;20003;-84
2022/05/14 06:16:15;;;;;;;;;;;;;;;21.57;48.34;100172.06;4415769;32;20020;-82
2022/05/14 06:18:42;;;;;;;;;;;;;;;21.57;47.62;100169.44;4414538;32;20441;-83
2022/05/14 06:21:09;;;;;;;;;;;;;;;21.61;48.54;100172.84;4415530;32;20125;-84
2022/05/14 06:23:36;;;;;;;;;;;;;;;21.98;46.30;100175.44;4415344;32;19985;-81
2022/05/14 06:26:03;;;;;;;;;;;;;;;21.95;46.65;100172.87;4416216;32;20028;-83
2022/05/14 06:28:29;;;;;;;;;;;;;;;22.23;44.92;100176.56;4414844;32;20054;-86
2022/05/14 06:30:57;;;;;;;;;;;;;;;22.51;43.25;100181.97;4415752;32;20337;-81
2022/05/14 06:33:26;;;;;;;;;;;;;;;22.60;44.32;100172.94;4414831;32;20018;-83
2022/05/14 06:35:53;;;;;;;;;;;;;;;22.83;43.29;100176.69;4416136;32;20260;-83
2022/05/14 06:38:20;;;;;;;;;;;;;;;23.30;41.88;100174.44;4414659;32;20378;-82
2022/05/14 06:40:49;;;;;;;;;;;;;;;23.69;40.97;100176.75;4415980;32;19982;-83
2022/05/14 06:43:16;;;;;;;;;;;;;;;23.83;38.97;100169.22;4415972;32;19999;-85
2022/05/14 06:45:43;;;;;;;;;;;;;;;24.06;38.88;100177.28;4415622;32;20018;-83
2022/05/14 06:48:10;;;;;;;;;;;;;;;24.34;37.55;100171.00;4415222;32;20394;-82
2022/05/14 06:50:38;;;;;;;;;;;;;;;24.63;36.90;100177.06;4416072;32;19988;-83
2022/05/14 06:53:05;;;;;;;;;;;;;;;24.63;36.95;100185.00;4415290;32;20380;-82
2022/05/14 06:55:35;;;;;;;;;;;;;;;24.89;37.08;100184.94;4413938;32;19966;-84
2022/05/14 06:58:03;;;;;;;;;;;;;;;24.92;37.51;100190.13;4415833;32;19986;-83
2022/05/14 07:00:29;;;;;;;;;;;;;;;25.09;37.11;100188.63;4414997;32;19982;-80
2022/05/14 07:06:37;;;;;;;;;;;;;;;25.13;36.61;100187.59;4414463;32;20554;-80
2022/05/14 07:08:29;;;;;;;;;;;;;;;25.17;36.79;100197.13;4409770;32;20028;-81
2022/05/14 07:10:56;;;;;;;;;;;;;;;25.32;36.83;100196.56;4416066;32;20000;-81
2022/05/14 07:13:22;;;;;;;;;;;;;;;25.43;36.22;100190.81;4414970;32;20000;-81
2022/05/14 07:15:49;;;;;;;;;;;;;;;25.88;34.82;100198.75;4415704;32;20035;-82
2022/05/14 07:18:16;;;;;;;;;;;;;;;25.85;34.37;100203.34;4414714;32;20048;-82
2022/05/14 07:20:43;;;;;;;;;;;;;;;25.86;34.42;100199.75;4414718;32;19997;-81
2022/05/14 07:23:11;;;;;;;;;;;;;;;26.22;34.95;100202.63;4413519;32;19990;-84
2022/05/14 07:25:38;;;;;;;;;;;;;;;26.44;34.38;100198.12;4415069;32;20352;-82
2022/05/14 07:28:05;;;;;;;;;;;;;;;26.41;33.45;100197.38;4415386;32;20057;-82
2022/05/14 07:30:32;;;;;;;;;;;;;;;27.05;30.53;100193.66;4415553;32;20593;-85
2022/05/14 07:32:59;;;;;;;;;;;;;;;26.73;33.65;100203.97;4414962;32;20384;-83
2022/05/14 07:35:26;;;;;;;;;;;;;;;26.94;31.41;100201.28;4413847;32;20233;-89
2022/05/14 07:37:53;;;;;;;;;;;;;;;26.86;31.97;100202.47;4413789;32;19982;-88
2022/05/14 07:40:21;;;;;;;;;;;;;;;26.67;32.84;100198.91;4414283;32;20341;-88
2022/05/14 07:42:48;;;;;;;;;;;;;;;26.86;32.15;100199.81;4413903;32;20304;-87
2022/05/14 07:45:15;;;;;;;;;;;;;;;27.25;30.35;100201.62;4415012;32;19992;-86
2022/05/14 07:47:43;;;;;;;;;;;;;;;27.02;31.58;100193.81;4413696;32;19979;-86
2022/05/14 07:50:10;;;;;;;;;;;;;;;27.43;28.92;100204.31;4415970;32;20041;-86
2022/05/14 07:52:37;;;;;;;;;;;;;;;27.23;28.97;100203.47;4416585;32;20083;-89
2022/05/14 07:55:04;;;;;;;;;;;;;;;27.33;27.82;100194.13;4417442;32;19993;-87
2022/05/14 07:57:31;;;;;;;;;;;;;;;26.67;29.48;100198.91;4416549;32;19970;-87
2022/05/14 08:00:01;;;;;;;;;;;;;;;26.98;30.26;100197.53;4416351;32;20347;-88
2022/05/14 08:02:39;;;;;;;;;;;;;;;27.15;28.79;100194.13;4416462;32;19986;-87
2022/05/14 08:05:09;;;;;;;;;;;;;;;26.78;32.01;100186.03;4415994;32;19992;-87
2022/05/14 08:07:36;;;;;;;;;;;;;;;27.06;29.83;100195.41;4416143;32;20300;-86
2022/05/14 08:10:04;;;;;;;;;;;;;;;26.96;30.91;100207.38;4415598;32;19994;-86
2022/05/14 08:12:33;;;;;;;;;;;;;;;26.87;28.62;100204.22;4415681;32;19985;-87
2022/05/14 08:14:59;;;;;;;;;;;;;;;27.69;26.92;100203.91;4415530;32;20371;-84
2022/05/14 08:17:29;;;;;;;;;;;;;;;27.68;27.66;100194.22;4416039;32;20012;-85
2022/05/14 08:19:56;;;;;;;;;;;;;;;27.88;26.73;100203.03;4410302;32;19986;-85
2022/05/14 08:25:09;;;;;;;;;;;;;;;27.55;27.49;100193.94;4416909;32;19977;-85
2022/05/14 08:27:44;;;;;;;;;;;;;;;27.88;25.98;100200.38;4417102;32;19985;-86
2022/05/14 08:30:13;;;;;;;;;;;;;;;27.60;26.26;100204.38;4413595;32;20437;-86
2022/05/14 08:32:42;;;;;;;;;;;;;;;27.83;28.03;100197.97;4415393;32;19981;-85
2022/05/14 08:35:09;;;;;;;;;;;;;;;27.97;25.85;100194.59;4416413;32;20037;-85
2022/05/14 08:37:36;;;;;;;;;;;;;;;28.12;25.47;100199.16;4415172;32;19978;-85
2022/05/14 08:40:09;;;;;;;;;;;;;;;27.98;25.73;100197.19;4416745;32;20643;-85
2022/05/14 08:42:36;;;;;;;;;;;;;;;28.22;25.32;100199.53;4415718;32;19989;-85
2022/05/14 08:45:04;;;;;;;;;;;;;;;28.11;25.57;100205.44;4415717;32;19982;-85
2022/05/14 08:47:31;;;;;;;;;;;;;;;27.90;26.65;100203.84;4404700;32;20285;-85
2022/05/14 08:49:58;;;;;;;;;;;;;;;27.83;26.27;100202.44;4416579;32;20000;-85
2022/05/14 08:52:30;;;;;;;;;;;;;;;28.03;24.38;100199.63;4416693;32;19986;-85
2022/05/14 08:54:59;;;;;;;;;;;;;;;27.84;25.17;100198.81;4414924;32;20019;-85
2022/05/14 08:57:29;;;;;;;;;;;;;;;27.80;24.86;100193.66;4416667;32;19978;-85
2022/05/14 08:59:56;;;;;;;;;;;;;;;28.31;25.11;100192.91;4416136;32;20030;-85
2022/05/14 09:02:25;;;;;;;;;;;;;;;28.13;25.30;100192.87;4414441;32;19977;-86
2022/05/14 09:04:57;;;;;;;;;;;;;;;28.51;24.43;100195.41;4415040;32;19982;-85
2022/05/14 09:07:24;;;;;;;;;;;;;;;28.46;24.11;100200.97;4414408;32;20004;-86
2022/05/14 09:09:51;;;;;;;;;;;;;;;28.07;26.39;100195.84;4415901;32;20020;-85
2022/05/14 09:12:20;;;;;;;;;;;;;;;28.03;25.88;100194.28;4416802;32;20039;-86
2022/05/14 09:14:51;;;;;;;;;;;;;;;28.07;27.25;100195.84;4415842;32;20614;-86
2022/05/14 09:17:20;;;;;;;;;;;;;;;28.19;26.73;100195.22;4415967;32;20022;-85
2022/05/14 09:19:51;;;;;;;;;;;;;;;27.95;28.48;100199.13;4414662;32;19986;-86
2022/05/14 09:22:30;;;;;;;;;;;;;;;27.53;28.08;100193.16;4415137;32;19999;-85
2022/05/14 09:24:57;;;;;;;;;;;;;;;28.17;25.65;100191.78;4415823;32;20000;-86
2022/05/14 09:27:29;;;;;;;;;;;;;;;28.51;25.46;100200.72;4416263;32;19989;-86
2022/05/14 09:29:57;;;;;;;;;;;;;;;28.49;26.24;100186.63;4417349;32;20000;-85
2022/05/14 09:32:26;;;;;;;;;;;;;;;27.64;26.60;100192.66;4416600;32;19999;-86
2022/05/14 09:35:02;;;;;;;;;;;;;;;27.97;26.24;100199.94;4414865;32;19983;-86
2022/05/14 09:37:48;;;;;;;;;;;;;;;28.16;25.36;100190.06;4416400;32;20410;-85
2022/05/14 09:40:22;;;;;;;;;;;;;;;28.24;26.91;100193.22;4416118;32;19989;-86
2022/05/14 09:43:13;;;;;;;;;;;;;;;27.88;27.41;100185.28;4414783;32;20354;-85
2022/05/14 09:45:41;;;;;;;;;;;;;;;28.68;24.21;100190.03;4410702;32;19989;-85
2022/05/14 09:48:09;;;;;;;;;;;;;;;28.19;27.35;100184.59;4415783;32;19978;-85
2022/05/14 09:50:36;;;;;;;;;;;;;;;28.43;24.54;100178.94;4416155;32;20025;-85
2022/05/14 09:53:04;;;;;;;;;;;;;;;28.23;24.90;100170.16;4416038;32;20037;-86
2022/05/14 09:55:47;;;;;;;;;;;;;;;28.73;23.37;100177.34;4412744;32;20039;-85
2022/05/14 09:58:16;;;;;;;;;;;;;;;28.68;24.29;100173.19;4414206;32;20703;-85
2022/05/14 10:00:53;;;;;;;;;;;;;;;28.39;26.83;100164.91;4414873;32;20024;-85
2022/05/14 10:03:42;;;;;;;;;;;;;;;28.41;28.66;100172.84;4416332;32;19986;-85
2022/05/14 10:06:20;;;;;;;;;;;;;;;28.65;24.39;100170.69;4414228;32;19969;-85
2022/05/14 10:08:59;;;;;;;;;;;;;;;28.50;25.59;100175.03;4401110;32;20299;-85
2022/05/14 10:11:29;;;;;;;;;;;;;;;28.66;24.44;100173.28;4414720;32;20391;-87
2022/05/14 10:14:09;;;;;;;;;;;;;;;28.58;26.87;100170.16;4415965;32;19978;-85
2022/05/14 10:16:54;;;;;;;;;;;;;;;28.82;24.25;100167.13;4413533;32;19986;-85
2022/05/14 10:19:22;;;;;;;;;;;;;;;28.99;24.64;100167.06;4415988;32;20363;-85
2022/05/14 10:22:02;;;;;;;;;;;;;;;29.10;22.45;100162.03;4405996;32;20780;-85
2022/05/14 10:27:23;;;;;;;;;;;;;;;28.74;23.78;100152.41;4414735;32;20042;-86
2022/05/14 10:29:56;;;;;;;;;;;;;;;28.87;24.00;100154.41;4415156;32;19974;-85
2022/05/14 10:32:27;;;;;;;;;;;;;;;28.59;25.23;100153.25;4427021;32;19990;-85
2022/05/14 10:35:18;;;;;;;;;;;;;;;28.72;23.05;100156.97;4426815;32;19982;-85
2022/05/14 10:37:45;;;;;;;;;;;;;;;28.76;22.65;100148.81;4396039;32;19993;-85
2022/05/14 10:40:22;;;;;;;;;;;;;;;28.57;23.66;100141.81;4416308;32;19978;-86
2022/05/14 10:42:52;;;;;;;;;;;;;;;28.22;27.14;100147.16;4415651;32;19985;-86
2022/05/14 10:45:24;;;;;;;;;;;;;;;28.65;24.00;100144.91;4415536;32;19994;-85
2022/05/14 10:48:06;;;;;;;;;;;;;;;28.82;23.09;100145.81;4418967;32;19981;-85
2022/05/14 10:50:35;;;;;;;;;;;;;;;28.68;23.27;100155.37;4415974;32;19997;-85
2022/05/14 10:53:04;;;;;;;;;;;;;;;28.85;22.57;100150.97;4416116;32;19977;-85
2022/05/14 10:55:33;;;;;;;;;;;;;;;27.98;26.28;100143.09;4413832;32;19999;-85
2022/05/14 10:58:01;;;;;;;;;;;;;;;28.62;23.24;100155.75;4418342;32;20357;-85
2022/05/14 11:00:29;;;;;;;;;;;;;;;28.59;22.00;100145.25;4427421;32;20311;-85
2022/05/14 11:03:09;;;;;;;;;;;;;;;28.52;22.14;100143.84;4415043;32;20031;-85
2022/05/14 11:05:49;;;;;;;;;;;;;;;28.74;21.62;100133.75;4415548;32;20043;-85
2022/05/14 11:08:26;;;;;;;;;;;;;;;28.65;22.22;100138.72;4414906;32;19978;-85
2022/05/14 11:11:07;;;;;;;;;;;;;;;28.58;22.74;100135.53;4414520;32;19989;-85
2022/05/14 11:13:34;;;;;;;;;;;;;;;28.66;23.01;100135.13;4413929;32;20007;-85
2022/05/14 11:16:05;;;;;;;;;;;;;;;28.57;23.35;100125.81;4402078;32;20077;-85
2022/05/14 11:18:52;;;;;;;;;;;;;;;28.91;22.23;100134.66;4413353;32;20053;-85
2022/05/14 11:21:22;;;;;;;;;;;;;;;29.03;22.85;100131.31;4401881;32;20335;-84
2022/05/14 11:23:54;;;;;;;;;;;;;;;28.71;22.12;100131.25;4421369;32;19990;-85
2022/05/14 11:26:21;;;;;;;;;;;;;;;29.06;20.38;100123.16;4411261;32;20038;-85
2022/05/14 11:28:55;;;;;;;;;;;;;;;28.82;20.93;100124.50;4404620;32;20032;-85
2022/05/14 11:31:24;;;;;;;;;;;;;;;28.62;20.78;100118.44;4411456;32;20736;-85
2022/05/14 11:33:52;;;;;;;;;;;;;;;28.76;21.08;100120.34;4411749;32;19993;-86
2022/05/14 11:36:19;;;;;;;;;;;;;;;28.50;21.91;100121.78;4419459;32;19986;-85
2022/05/14 11:38:47;;;;;;;;;;;;;;;28.07;24.03;100120.47;4412067;32;20096;-86
2022/05/14 11:41:25;;;;;;;;;;;;;;;28.37;18.84;100121.53;4414356;32;20044;-85
2022/05/14 11:43:53;;;;;;;;;;;;;;;28.50;18.37;100119.97;4415397;32;19982;-86
2022/05/14 11:46:32;;;;;;;;;;;;;;;28.34;19.96;100103.06;4415049;32;20008;-85
2022/05/14 11:49:04;;;;;;;;;;;;;;;28.26;20.03;100111.44;4415537;32;19971;-85
2022/05/14 11:51:38;;;;;;;;;;;;;;;28.20;21.58;100105.56;4413379;32;19986;-85
2022/05/14 11:54:07;;;;;;;;;;;;;;;28.23;22.10;100103.59;4415360;32;19990;-86
2022/05/14 11:56:37;;;;;;;;;;;;;;;28.11;24.78;100108.72;4413177;32;19986;-85
2022/05/14 11:59:03;;;;;;;;;;;;;;;28.13;23.06;100110.38;4415542;32;19978;-84
2022/05/14 12:01:32;;;;;;;;;;;;;;;28.33;22.61;100105.78;4415179;32;19982;-85
2022/05/14 12:04:01;;;;;;;;;;;;;;;28.51;21.79;100115.50;4413683;32;19996;-85
2022/05/14 12:06:31;;;;;;;;;;;;;;;28.26;22.09;100111.44;4413290;32;19986;-86
2022/05/14 12:09:37;;;;;;;;;;;;;;;28.24;23.19;100116.00;4414902;32;19989;-85
2022/05/14 12:12:15;;;;;;;;;;;;;;;28.47;23.17;100108.63;4367134;32;20006;-85
2022/05/14 12:14:42;;;;;;;;;;;;;;;28.64;22.85;100103.22;4354249;32;20020;-85
2022/05/14 12:17:13;;;;;;;;;;;;;;;28.28;22.93;100104.25;4392996;32;20027;-86
2022/05/14 12:19:40;;;;;;;;;;;;;;;28.34;22.90;100096.88;4414157;32;19965;-85
2022/05/14 12:22:08;;;;;;;;;;;;;;;28.22;21.13;100107.22;4413044;32;20362;-85
2022/05/14 12:24:38;;;;;;;;;;;;;;;27.63;22.83;100111.13;4413754;32;20448;-85
2022/05/14 12:27:15;;;;;;;;;;;;;;;27.92;22.60;100106.16;4414071;32;20007;-86
2022/05/14 12:29:53;;;;;;;;;;;;;;;28.12;22.39;100095.34;4405196;32;863568;-85
2022/05/14 12:35:14;;;;;;;;;;;;;;;28.03;22.63;100095.81;4414617;32;20028;-85
2022/05/14 12:37:41;;;;;;;;;;;;;;;28.23;21.59;100105.41;4414546;32;19994;-85
2022/05/14 12:40:19;;;;;;;;;;;;;;;28.12;24.28;100102.47;4414485;32;20435;-86
2022/05/14 12:42:46;;;;;;;;;;;;;;;28.29;21.86;100089.13;4415502;32;20045;-85
2022/05/14 12:45:14;;;;;;;;;;;;;;;28.13;24.07;100089.06;4417284;32;19992;-85
2022/05/14 12:47:40;;;;;;;;;;;;;;;28.42;20.96;100089.34;4416104;32;19973;-85
2022/05/14 12:50:18;;;;;;;;;;;;;;;28.19;23.35;100099.41;4414954;32;20049;-85
2022/05/14 12:52:53;;;;;;;;;;;;;;;27.93;23.75;100091.94;4413669;32;19997;-86
2022/05/14 12:55:20;;;;;;;;;;;;;;;28.55;21.89;100078.91;4415393;32;20000;-86
2022/05/14 12:57:47;;;;;;;;;;;;;;;27.85;24.57;100083.47;4378564;32;20032;-86
2022/05/14 13:00:17;;;;;;;;;;;;;;;27.45;25.28;100080.16;4393276;32;19986;-85
2022/05/14 13:02:50;;;;;;;;;;;;;;;27.90;23.52;100078.78;4399252;32;20807;-85
2022/05/14 13:05:33;;;;;;;;;;;;;;;28.11;21.67;100080.31;4400052;32;20031;-85
2022/05/14 13:08:06;;;;;;;;;;;;;;;27.98;22.36;100071.25;4401500;32;20049;-85
2022/05/14 13:10:34;;;;;;;;;;;;;;;27.87;23.25;100060.31;4399511;32;20025;-86